Time;durP1;ratioP1;P1;durP2;ratioP2;P2;SDS_P1;SDS_P2;PMS_P1;PMS_P2;Temp;Humidity;BMP_temperature;BMP_pressure;BME280_temperature;BME280_humidity;BME280_pressure;Samples;Min_cycle;Max_cycle;Signal;HPM_P1;HPM_P2
2022/04/07 00:01:35;;;;;;;12.60;9.10;;;;;;;9.09;69.94;98595.51;105876;1276;24200;-80
2022/04/07 00:04:02;;;;;;;14.30;9.80;;;;;;;9.09;69.80;98590.59;105950;1276;23143;-78
2022/04/07 00:06:29;;;;;;;11.60;8.20;;;;;;;9.05;69.78;98584.92;106052;1276;22563;-78
2022/04/07 00:08:57;;;;;;;11.40;8.20;;;;;;;9.03;69.71;98580.60;106113;1276;25257;-79
2022/04/07 00:11:24;;;;;;;11.80;8.10;;;;;;;9.03;69.84;98579.39;105855;1276;22534;-80
2022/04/07 00:13:51;;;;;;;13.20;8.80;;;;;;;9.06;69.73;98573.85;105801;1275;25548;-78
2022/04/07 00:16:17;;;;;;;13.20;9.00;;;;;;;9.05;69.72;98573.15;105756;1276;24290;-77
2022/04/07 00:18:45;;;;;;;12.90;8.20;;;;;;;9.05;69.65;98571.60;105871;1276;24280;-75
2022/04/07 00:21:12;;;;;;;12.00;8.30;;;;;;;9.03;69.66;98576.39;105915;1276;24001;-80
2022/04/07 00:23:40;;;;;;;12.30;8.60;;;;;;;9.01;69.65;98571.17;106004;1276;23208;-80
2022/04/07 00:26:08;;;;;;;11.70;8.30;;;;;;;9.00;69.67;98566.12;105983;1276;22722;-78
2022/04/07 00:28:35;;;;;;;11.40;8.10;;;;;;;8.99;69.59;98561.77;105972;1276;25449;-77
2022/04/07 00:31:02;;;;;;;10.00;7.90;;;;;;;8.99;69.71;98556.69;105927;1276;23975;-81
2022/04/07 00:33:28;;;;;;;10.60;7.90;;;;;;;9.02;69.54;98555.55;106078;1275;23198;-79
2022/04/07 00:35:55;;;;;;;10.10;7.50;;;;;;;9.03;69.54;98545.82;105953;1276;23244;-77
2022/04/07 00:38:22;;;;;;;12.10;8.30;;;;;;;9.04;69.44;98549.33;105853;1276;25256;-77
2022/04/07 00:40:49;;;;;;;12.60;8.10;;;;;;;9.03;69.36;98547.05;105911;1276;22898;-79
2022/04/07 00:43:32;;;;;;;10.90;7.60;;;;;;;9.02;69.38;98542.70;105797;1276;24703;-80
2022/04/07 00:46:01;;;;;;;11.20;8.20;;;;;;;9.00;69.21;98540.48;105866;1276;22635;-79
2022/04/07 00:48:29;;;;;;;16.80;9.00;;;;;;;8.97;69.18;98537.77;106015;1276;25362;-80
2022/04/07 00:50:56;;;;;;;10.20;7.80;;;;;;;8.97;69.30;98532.52;106017;1276;22699;-81
2022/04/07 00:53:24;;;;;;;10.70;7.90;;;;;;;8.98;69.26;98529.84;106169;1276;22688;-80
2022/04/07 00:55:51;;;;;;;9.70;6.80;;;;;;;9.02;69.38;98533.21;106079;1276;25432;-79
2022/04/07 00:58:20;;;;;;;9.50;6.90;;;;;;;9.06;69.10;98530.48;105962;1276;24720;-79
2022/04/07 01:00:47;;;;;;;8.30;6.90;;;;;;;9.05;69.07;98527.70;106161;1276;25244;-81
2022/04/07 01:03:15;;;;;;;11.90;7.60;;;;;;;9.02;68.96;98523.73;105994;1276;22530;-78
2022/04/07 01:05:42;;;;;;;9.40;7.20;;;;;;;9.01;68.98;98523.27;106028;1276;25248;-80
2022/04/07 01:08:09;;;;;;;9.60;7.20;;;;;;;8.98;68.98;98522.30;105778;1276;23968;-79
2022/04/07 01:10:37;;;;;;;11.80;8.10;;;;;;;8.95;68.98;98521.85;105710;1276;24287;-77
2022/04/07 01:13:04;;;;;;;10.20;7.50;;;;;;;8.93;69.08;98520.86;105797;1276;22612;-76
2022/04/07 01:15:31;;;;;;;8.80;6.90;;;;;;;8.91;69.07;98515.65;105895;1275;25484;-77
2022/04/07 01:18:00;;;;;;;10.30;7.20;;;;;;;8.87;69.17;98499.29;105828;1276;22573;-78
2022/04/07 01:20:27;;;;;;;9.10;7.50;;;;;;;8.94;69.20;98504.88;105743;1276;22872;-76
2022/04/07 01:22:56;;;;;;;11.80;8.30;;;;;;;8.94;69.12;98507.51;105704;1276;25312;-74
2022/04/07 01:25:27;;;;;;;10.40;8.00;;;;;;;8.95;69.13;98506.08;105809;1276;24297;-75
2022/04/07 01:27:55;;;;;;;10.80;7.60;;;;;;;8.95;69.28;98501.33;105998;1276;23953;-73
2022/04/07 01:30:22;;;;;;;11.70;7.80;;;;;;;8.95;69.03;98496.05;105873;1276;25530;-79
2022/04/07 01:32:53;;;;;;;14.00;8.20;;;;;;;8.88;69.01;98495.75;105827;1276;24422;-81
2022/04/07 01:35:22;;;;;;;10.60;6.90;;;;;;;8.89;69.21;98499.95;106215;1276;22767;-79
2022/04/07 01:37:51;;;;;;;12.10;7.70;;;;;;;8.93;69.25;98496.47;105988;1276;22555;-75
2022/04/07 01:40:23;;;;;;;11.10;7.80;;;;;;;8.94;69.08;98498.19;106048;1276;25201;-76
2022/04/07 01:42:53;;;;;;;10.80;7.70;;;;;;;8.91;69.22;98497.75;106133;1276;23613;-76
2022/04/07 01:45:21;;;;;;;10.80;8.00;;;;;;;8.95;69.27;98496.94;106393;1276;24207;-76
2022/04/07 01:47:48;;;;;;;10.50;7.90;;;;;;;8.96;69.28;98494.11;105828;1282;22923;-75
2022/04/07 01:50:19;;;;;;;12.20;8.60;;;;;;;8.97;69.25;98492.83;105623;1281;23983;-74
2022/04/07 01:52:47;;;;;;;9.90;7.30;;;;;;;8.97;69.14;98487.55;105923;1282;24191;-79
2022/04/07 01:55:16;;;;;;;10.60;7.90;;;;;;;8.97;69.31;98488.79;106579;1280;23936;-75
2022/04/07 01:57:48;;;;;;;13.50;7.60;;;;;;;9.00;69.35;98485.52;107084;1281;25646;-74
2022/04/07 02:00:16;;;;;;;12.20;8.10;;;;;;;9.05;69.22;98484.48;106911;1282;22471;-75
2022/04/07 02:02:45;;;;;;;11.50;8.10;;;;;;;9.05;69.13;98485.55;106639;1282;23959;-72
2022/04/07 02:05:13;;;;;;;10.10;7.30;;;;;;;9.01;69.09;98482.85;106623;1276;22785;-74
2022/04/07 02:07:42;;;;;;;12.10;8.60;;;;;;;8.99;69.10;98484.34;106426;1276;25648;-77
2022/04/07 02:10:12;;;;;;;12.60;8.50;;;;;;;9.01;69.28;98483.94;106152;1275;22537;-74
2022/04/07 02:12:41;;;;;;;11.80;8.50;;;;;;;9.01;69.13;98482.68;106008;1276;22619;-76
2022/04/07 02:15:09;;;;;;;10.80;7.50;;;;;;;9.02;69.23;98477.59;105999;1276;26662;-78
2022/04/07 02:17:36;;;;;;;10.80;7.60;;;;;;;9.04;69.20;98475.40;105942;1276;22697;-76
2022/04/07 02:20:06;;;;;;;11.60;8.00;;;;;;;9.07;69.19;98471.77;105857;1276;25242;-76
2022/04/07 02:22:33;;;;;;;11.50;7.80;;;;;;;9.10;69.22;98466.94;105855;1276;25262;-75
2022/04/07 02:25:00;;;;;;;12.40;8.80;;;;;;;9.07;68.92;98468.79;106012;1276;22705;-78
2022/04/07 02:27:35;;;;;;;12.10;8.60;;;;;;;9.03;69.18;98468.95;105865;1276;22537;-78
2022/04/07 02:30:10;;;;;;;10.80;8.40;;;;;;;9.02;69.24;98468.07;105732;1276;24066;-77
2022/04/07 02:32:37;;;;;;;10.10;8.30;;;;;;;8.98;69.09;98461.90;105945;1276;26757;-77
2022/04/07 02:35:05;;;;;;;9.90;7.20;;;;;;;8.93;69.32;98463.48;105867;1276;22671;-76
2022/04/07 02:37:31;;;;;;;9.30;7.20;;;;;;;8.92;69.39;98461.18;105950;1276;24243;-76
2022/04/07 02:39:57;;;;;;;;;;;;;;;8.92;69.36;98458.05;106049;1276;25951;-75
2022/04/07 02:42:24;;;;;;;10.30;8.00;;;;;;;8.94;69.52;98453.98;105857;1276;22544;-76
2022/04/07 02:44:51;;;;;;;13.90;9.20;;;;;;;8.96;69.49;98447.23;105864;1276;23960;-77
2022/04/07 02:47:35;;;;;;;11.50;8.40;;;;;;;8.95;69.55;98443.55;106031;1276;24338;-77
2022/04/07 02:50:02;;;;;;;9.80;7.40;;;;;;;8.89;69.52;98442.18;105796;1276;22572;-79
2022/04/07 02:52:29;;;;;;;12.60;8.80;;;;;;;8.85;69.54;98440.36;105626;1276;25338;-78
2022/04/07 02:54:56;;;;;;;13.30;7.90;;;;;;;8.87;69.65;98437.16;105268;1281;25365;-78
2022/04/07 02:57:24;;;;;;;13.50;8.90;;;;;;;8.89;69.68;98430.94;105550;1281;25337;-78
2022/04/07 02:59:52;;;;;;;12.00;8.00;;;;;;;8.88;69.68;98427.80;105515;1281;25222;-84
2022/04/07 03:02:19;;;;;;;12.60;9.00;;;;;;;8.89;69.71;98424.42;105621;1281;25624;-78
2022/04/07 03:04:46;;;;;;;13.30;8.70;;;;;;;8.90;69.72;98422.11;105677;1281;24414;-78
2022/04/07 03:07:13;;;;;;;10.20;8.30;;;;;;;8.93;69.65;98419.73;105539;1281;22522;-80
2022/04/07 03:09:40;;;;;;;11.50;8.00;;;;;;;8.98;69.74;98417.51;105402;1281;25353;-80
2022/04/07 03:12:08;;;;;;;14.00;8.90;;;;;;;8.97;69.63;98416.30;105601;1281;22538;-77
2022/04/07 03:14:36;;;;;;;11.30;8.10;;;;;;;9.02;69.69;98413.48;106044;1276;24455;-79
2022/04/07 03:17:03;;;;;;;11.70;8.40;;;;;;;9.08;69.69;98411.54;105838;1276;22545;-77
2022/04/07 03:19:30;;;;;;;11.10;7.30;;;;;;;9.09;69.44;98414.29;105948;1276;25257;-82
2022/04/07 03:21:57;;;;;;;12.40;8.10;;;;;;;9.06;69.43;98415.12;105998;1275;22547;-77
2022/04/07 03:24:25;;;;;;;11.50;8.10;;;;;;;9.04;69.52;98419.02;105989;1276;24238;-79
2022/04/07 03:27:06;;;;;;;15.10;8.00;;;;;;;9.00;69.56;98417.94;105912;1276;22569;-80
2022/04/07 03:29:34;;;;;;;11.40;8.30;;;;;;;8.98;69.73;98416.45;105990;1276;22547;-79
2022/04/07 03:32:02;;;;;;;11.50;8.20;;;;;;;8.93;69.66;98416.23;106142;1276;23953;-79
2022/04/07 03:34:29;;;;;;;12.20;8.00;;;;;;;8.91;69.79;98414.72;106090;1276;24243;-80
2022/04/07 03:36:56;;;;;;;10.80;8.50;;;;;;;8.92;69.83;98405.91;105911;1276;23539;-78
2022/04/07 03:39:23;;;;;;;10.10;7.00;;;;;;;8.95;69.82;98410.04;105952;1276;22697;-79
2022/04/07 03:41:49;;;;;;;11.80;8.40;;;;;;;8.96;69.80;98406.14;106006;1276;22637;-81
2022/04/07 03:44:16;;;;;;;11.90;8.70;;;;;;;8.97;69.82;98407.16;106057;1276;25301;-79
2022/04/07 03:46:43;;;;;;;12.90;8.50;;;;;;;8.98;69.83;98408.71;105980;1276;25412;-74
2022/04/07 03:49:11;;;;;;;11.50;7.20;;;;;;;8.96;69.83;98410.17;105895;1276;25408;-78
2022/04/07 03:51:38;;;;;;;11.50;9.10;;;;;;;8.95;69.77;98407.41;105997;1276;24005;-76
2022/04/07 03:54:10;;;;;;;12.60;8.00;;;;;;;8.94;69.81;98407.27;105919;1276;22623;-77
2022/04/07 03:56:38;;;;;;;14.80;8.50;;;;;;;8.94;69.71;98413.40;105622;1281;22776;-75
2022/04/07 03:59:05;;;;;;;16.30;9.10;;;;;;;8.96;69.82;98411.60;104508;1287;25404;-77
2022/04/07 04:01:32;;;;;;;14.20;9.50;;;;;;;9.01;69.90;98414.05;104713;1287;25467;-77
2022/04/07 04:04:01;;;;;;;13.00;9.30;;;;;;;9.00;69.81;98412.30;104552;1287;22909;-76
2022/04/07 04:06:29;;;;;;;12.20;8.80;;;;;;;9.01;69.69;98421.24;104459;1290;22600;-78
2022/04/07 04:08:56;;;;;;;12.60;8.50;;;;;;;9.00;69.73;98419.70;104659;1287;22855;-78
2022/04/07 04:11:23;;;;;;;13.50;9.40;;;;;;;8.98;69.69;98420.11;104683;1287;22554;-75
2022/04/07 04:13:50;;;;;;;10.20;7.50;;;;;;;8.95;69.78;98422.84;104774;1287;22581;-77
2022/04/07 04:16:17;;;;;;;13.70;8.80;;;;;;;8.92;69.72;98422.76;105572;1282;24393;-78
2022/04/07 04:18:45;;;;;;;12.10;8.10;;;;;;;8.91;69.80;98421.91;107236;1276;22718;-86
2022/04/07 04:21:12;;;;;;;10.70;8.00;;;;;;;8.91;69.85;98419.63;107193;1276;22611;-87
2022/04/07 04:23:40;;;;;;;11.80;8.60;;;;;;;8.89;69.81;98424.96;106608;1276;22553;-79
2022/04/07 04:26:08;;;;;;;15.00;9.60;;;;;;;8.90;69.92;98423.36;106951;1276;23861;-83
2022/04/07 04:28:35;;;;;;;12.00;9.40;;;;;;;8.90;69.96;98425.13;106843;1276;22472;-80
2022/04/07 04:31:02;;;;;;;17.00;11.60;;;;;;;8.90;70.00;98428.64;107130;1276;24297;-83
2022/04/07 04:33:29;;;;;;;22.30;14.20;;;;;;;8.87;69.90;98429.95;107736;1276;25374;-83
2022/04/07 04:35:59;;;;;;;23.00;16.20;;;;;;;8.83;69.82;98433.09;108112;1276;22717;-82
2022/04/07 04:38:26;;;;;;;29.90;22.10;;;;;;;8.84;70.07;98430.23;108338;1276;22600;-82
2022/04/07 04:40:53;;;;;;;24.50;17.60;;;;;;;8.88;70.04;98432.20;108844;1276;22477;-82
2022/04/07 04:43:20;;;;;;;21.60;15.10;;;;;;;8.94;70.08;98428.50;108793;1276;22555;-82
2022/04/07 04:45:48;;;;;;;16.20;12.90;;;;;;;8.97;69.88;98430.34;108959;1276;22953;-81
2022/04/07 04:48:15;;;;;;;19.80;13.90;;;;;;;8.97;69.95;98429.29;108807;1276;25372;-78
2022/04/07 04:50:42;;;;;;;13.70;10.40;;;;;;;9.00;69.95;98435.67;108860;1276;22556;-81
2022/04/07 04:53:09;;;;;;;16.30;11.40;;;;;;;9.00;69.74;98436.39;108857;1276;22558;-77
2022/04/07 04:55:36;;;;;;;17.90;10.90;;;;;;;8.99;69.70;98434.33;107948;1276;22559;-76
2022/04/07 04:58:03;;;;;;;15.30;10.70;;;;;;;8.94;69.59;98432.19;106972;1277;22557;-83
2022/04/07 05:00:30;;;;;;;16.80;11.30;;;;;;;8.93;69.64;98428.87;107229;1276;22556;-76
2022/04/07 05:02:57;;;;;;;14.80;10.20;;;;;;;8.99;69.76;98427.45;107470;1276;22474;-75
2022/04/07 05:05:24;;;;;;;14.20;9.80;;;;;;;9.04;69.65;98427.12;107050;1278;25857;-77
2022/04/07 05:07:52;;;;;;;12.90;9.30;;;;;;;9.06;69.46;98426.17;107069;1276;22570;-76
2022/04/07 05:10:19;;;;;;;14.40;9.60;;;;;;;9.04;69.50;98424.65;107122;1276;24333;-77
2022/04/07 05:12:46;;;;;;;11.70;7.60;;;;;;;9.08;69.58;98424.34;107383;1276;25488;-75
2022/04/07 05:15:13;;;;;;;12.10;9.50;;;;;;;9.07;69.45;98426.83;108242;1276;22480;-76
2022/04/07 05:17:40;;;;;;;11.90;8.30;;;;;;;9.09;69.50;98426.92;107637;1276;23905;-77
2022/04/07 05:20:08;;;;;;;11.60;8.60;;;;;;;9.12;69.33;98423.66;106901;1276;25258;-77
2022/04/07 05:22:36;;;;;;;12.80;7.20;;;;;;;9.16;69.34;98421.95;107707;1276;24236;-76
2022/04/07 05:25:04;;;;;;;11.10;8.30;;;;;;;9.17;69.27;98421.05;107583;1276;23036;-75
2022/04/07 05:27:36;;;;;;;12.10;8.70;;;;;;;9.20;69.14;98416.20;107744;1276;22532;-76
2022/04/07 05:30:10;;;;;;;15.20;9.80;;;;;;;9.23;69.19;98413.13;107862;1276;22551;-76
2022/04/07 05:32:37;;;;;;;14.60;10.00;;;;;;;9.28;68.89;98416.29;108096;1276;22545;-77
2022/04/07 05:35:04;;;;;;;12.20;9.50;;;;;;;9.30;68.90;98413.56;108141;1276;24160;-85
2022/04/07 05:37:31;;;;;;;13.10;9.00;;;;;;;9.36;68.85;98411.73;107458;1276;22775;-79
2022/04/07 05:39:58;;;;;;;12.30;8.60;;;;;;;9.44;68.78;98407.64;106978;1276;24249;-82
2022/04/07 05:42:31;;;;;;;10.20;8.20;;;;;;;9.50;68.43;98407.58;106090;1276;22548;-84
2022/04/07 05:44:58;;;;;;;13.80;8.60;;;;;;;9.52;68.14;98413.83;105846;1279;22532;-85
2022/04/07 05:47:25;;;;;;;11.90;8.90;;;;;;;9.54;68.07;98415.33;105973;1279;25667;-80
2022/04/07 05:49:55;;;;;;;12.00;8.10;;;;;;;9.63;68.17;98407.27;104988;1287;22518;-80
2022/04/07 05:52:23;;;;;;;10.00;7.40;;;;;;;9.71;67.95;98406.31;105655;1287;22542;-81
2022/04/07 05:54:52;;;;;;;13.90;8.50;;;;;;;9.75;67.33;98402.48;105738;1287;24207;-82
2022/04/07 05:57:21;;;;;;;12.20;8.50;;;;;;;9.72;67.03;98397.46;105148;1287;22550;-81
2022/04/07 05:59:48;;;;;;;11.50;8.10;;;;;;;9.74;66.84;98393.17;105174;1287;24007;-80
2022/04/07 06:02:15;;;;;;;11.50;7.80;;;;;;;9.77;66.88;98385.52;105585;1287;22799;-81
2022/04/07 06:04:43;;;;;;;11.10;7.90;;;;;;;9.84;66.78;98382.23;105749;1281;25320;-82
2022/04/07 06:07:11;;;;;;;9.40;6.70;;;;;;;9.90;66.22;98383.08;105654;1281;23189;-81
2022/04/07 06:09:38;;;;;;;10.60;7.20;;;;;;;9.95;65.99;98383.42;106152;1276;22557;-78
2022/04/07 06:12:06;;;;;;;10.90;7.20;;;;;;;10.00;65.87;98380.92;106277;1276;22541;-80
2022/04/07 06:14:33;;;;;;;9.50;6.90;;;;;;;10.08;65.75;98378.20;106596;1276;24330;-80
2022/04/07 06:17:02;;;;;;;11.10;7.10;;;;;;;10.14;65.31;98372.33;106025;1276;22682;-83
2022/04/07 06:19:29;;;;;;;8.50;6.40;;;;;;;10.22;64.82;98382.57;106236;1276;22531;-81
2022/04/07 06:21:56;;;;;;;11.10;6.50;;;;;;;10.28;64.77;98381.27;106183;1277;24256;-80
2022/04/07 06:24:23;;;;;;;8.40;5.90;;;;;;;10.35;64.61;98378.33;106057;1276;24549;-80
2022/04/07 06:26:50;;;;;;;10.90;5.60;;;;;;;10.39;63.87;98378.31;106171;1276;24246;-79
2022/04/07 06:29:17;;;;;;;8.00;5.80;;;;;;;10.41;63.56;98372.11;106187;1276;22538;-79
2022/04/07 06:31:44;;;;;;;10.90;5.80;;;;;;;10.44;63.45;98370.92;106182;1276;22584;-81
2022/04/07 06:34:21;;;;;;;8.00;5.40;;;;;;;10.47;62.93;98369.59;106466;1276;26731;-79
2022/04/07 06:36:47;;;;;;;5.90;5.20;;;;;;;10.53;62.93;98368.66;106138;1276;24280;-81
2022/04/07 06:39:16;;;;;;;7.50;5.70;;;;;;;10.59;62.41;98366.81;106258;1276;23303;-81
2022/04/07 06:41:43;;;;;;;7.50;5.00;;;;;;;10.64;62.31;98357.48;106056;1276;26552;-80
2022/04/07 06:44:10;;;;;;;6.80;4.80;;;;;;;10.70;62.27;98356.72;105965;1276;23951;-80
2022/04/07 06:46:37;;;;;;;6.80;4.80;;;;;;;10.75;61.82;98354.56;105934;1276;22528;-80
2022/04/07 06:49:04;;;;;;;7.70;5.40;;;;;;;10.75;60.85;98355.97;105999;1276;22552;-81
2022/04/07 06:51:31;;;;;;;7.40;5.60;;;;;;;10.78;61.31;98365.19;105904;1276;22578;-81
2022/04/07 06:53:59;;;;;;;7.20;5.30;;;;;;;10.83;61.13;98351.23;106091;1278;22760;-82
2022/04/07 06:56:26;;;;;;;9.50;6.30;;;;;;;10.87;61.11;98351.77;106096;1277;25219;-81
2022/04/07 06:58:54;;;;;;;7.70;5.10;;;;;;;10.91;61.01;98350.89;106017;1276;25372;-78
2022/04/07 07:01:21;;;;;;;7.60;5.20;;;;;;;10.94;61.00;98346.17;106084;1277;22675;-82
2022/04/07 07:03:49;;;;;;;10.00;5.70;;;;;;;10.99;60.89;98348.59;106080;1276;24212;-82
2022/04/07 07:06:16;;;;;;;7.60;5.40;;;;;;;11.04;60.61;98350.66;105153;1282;22552;-79
2022/04/07 07:08:43;;;;;;;7.40;5.10;;;;;;;11.08;60.21;98346.11;105597;1281;22481;-81
2022/04/07 07:11:11;;;;;;;10.10;5.40;;;;;;;11.11;60.22;98351.42;105657;1281;25633;-81
2022/04/07 07:13:38;;;;;;;9.00;5.20;;;;;;;11.19;60.34;98350.38;105497;1281;26498;-80
2022/04/07 07:16:05;;;;;;;5.80;4.20;;;;;;;11.28;59.96;98356.70;105315;1281;269602;-78
2022/04/07 07:18:32;;;;;;;7.40;4.50;;;;;;;11.32;59.44;98359.30;106432;1281;22567;-80
2022/04/07 07:20:59;;;;;;;7.10;5.60;;;;;;;11.35;59.02;98357.97;106305;1281;23182;-81
2022/04/07 07:23:26;;;;;;;8.00;4.80;;;;;;;11.38;59.27;98354.80;105774;1281;24319;-82
2022/04/07 07:25:54;;;;;;;8.10;4.30;;;;;;;11.47;59.55;98355.30;105983;1277;25496;-83
2022/04/07 07:28:21;;;;;;;5.60;4.00;;;;;;;11.58;58.97;98353.43;105983;1278;23952;-81
2022/04/07 07:30:48;;;;;;;7.10;4.70;;;;;;;11.63;58.26;98349.64;107032;1276;25377;-79
2022/04/07 07:33:15;;;;;;;5.60;3.60;;;;;;;11.69;58.50;98346.20;106405;1276;25390;-83
2022/04/07 07:35:45;;;;;;;5.00;3.80;;;;;;;11.74;58.20;98349.14;106682;1277;25223;-81
2022/04/07 07:38:13;;;;;;;6.10;3.80;;;;;;;11.75;57.80;98352.42;107692;1276;24300;-80
2022/04/07 07:40:40;;;;;;;7.50;4.40;;;;;;;11.79;57.90;98338.51;106552;1277;22565;-80
2022/04/07 07:43:07;;;;;;;5.90;4.40;;;;;;;11.87;58.13;98342.69;107231;1277;22611;-80
2022/04/07 07:45:35;;;;;;;8.70;4.70;;;;;;;12.03;58.27;98340.39;107548;1277;24271;-78
2022/04/07 07:48:26;;;;;;;6.20;3.60;;;;;;;12.18;57.66;98338.33;107397;1276;22809;-81
2022/04/07 07:50:53;;;;;;;8.50;4.60;;;;;;;12.20;56.76;98329.88;106868;1276;22707;-81
2022/04/07 07:53:23;;;;;;;6.50;4.30;;;;;;;12.18;56.54;98336.17;106499;1277;22876;-81
2022/04/07 07:55:50;;;;;;;5.20;3.80;;;;;;;12.15;56.15;98341.77;106886;1278;22528;-80
2022/04/07 07:58:17;;;;;;;6.70;4.20;;;;;;;12.10;56.00;98336.02;106471;1277;22528;-85
2022/04/07 08:00:44;;;;;;;4.80;3.90;;;;;;;12.07;56.31;98336.13;106178;1278;24294;-80
2022/04/07 08:03:12;;;;;;;4.60;4.00;;;;;;;12.09;56.44;98341.73;105979;1278;26483;-78
2022/04/07 08:05:39;;;;;;;7.10;4.10;;;;;;;12.10;55.81;98338.14;106012;1277;24090;-80
2022/04/07 08:08:06;;;;;;;5.10;3.70;;;;;;;12.05;55.79;98340.12;106330;1278;22541;-82
2022/04/07 08:10:34;;;;;;;6.30;3.90;;;;;;;12.10;56.42;98344.32;107596;1277;25374;-82
2022/04/07 08:13:01;;;;;;;6.10;3.70;;;;;;;12.13;55.45;98347.70;106013;1278;25389;-80
2022/04/07 08:15:29;;;;;;;5.20;3.90;;;;;;;12.10;55.46;98347.64;106060;1277;22552;-81
2022/04/07 08:17:55;;;;;;;5.70;4.30;;;;;;;12.07;55.34;98340.41;106085;1276;24333;-80
2022/04/07 08:20:23;;;;;;;7.60;4.10;;;;;;;12.05;55.62;98341.89;105538;1281;23282;-81
2022/04/07 08:22:50;;;;;;;7.50;4.10;;;;;;;12.10;55.77;98338.46;105397;1281;22854;-82
2022/04/07 08:25:17;;;;;;;6.00;4.20;;;;;;;12.20;55.52;98333.43;105464;1284;26535;-81
2022/04/07 08:27:45;;;;;;;3.80;3.20;;;;;;;12.36;55.19;98330.88;105271;1285;22720;-78
2022/04/07 08:30:13;;;;;;;7.00;4.00;;;;;;;12.46;54.38;98327.56;105483;1284;25379;-80
2022/04/07 08:32:40;;;;;;;9.30;4.30;;;;;;;12.55;53.69;98332.23;105693;1284;22806;-80
2022/04/07 08:35:09;;;;;;;9.00;4.10;;;;;;;12.60;53.62;98330.94;107042;1281;22537;-82
2022/04/07 08:37:37;;;;;;;6.00;3.70;;;;;;;12.68;52.62;98335.49;105520;1281;22547;-81
2022/04/07 08:40:07;;;;;;;4.30;3.20;;;;;;;12.66;52.25;98333.45;106545;1277;22811;-80
2022/04/07 08:42:36;;;;;;;7.90;3.70;;;;;;;12.70;52.76;98327.80;106229;1277;25266;-79
2022/04/07 08:45:05;;;;;;;4.20;3.20;;;;;;;12.77;52.33;98331.69;106321;1277;25527;-80
2022/04/07 08:47:33;;;;;;;5.70;4.00;;;;;;;12.79;52.25;98323.61;106905;1276;22551;-81
2022/04/07 08:50:05;;;;;;;7.30;3.80;;;;;;;12.80;52.22;98322.67;106671;1276;22583;-82
2022/04/07 08:52:35;;;;;;;5.00;3.10;;;;;;;12.78;52.55;98320.52;107911;1276;22519;-82
2022/04/07 08:55:05;;;;;;;6.00;4.00;;;;;;;12.80;52.20;98332.58;107283;1281;22536;-81
2022/04/07 08:57:36;;;;;;;4.60;3.60;;;;;;;12.82;52.29;98316.06;107181;1281;25850;-80
2022/04/07 09:00:04;;;;;;;6.20;4.00;;;;;;;12.89;52.23;98314.50;106653;1281;24109;-82
2022/04/07 09:02:31;;;;;;;4.80;4.10;;;;;;;12.99;52.43;98315.52;106712;1281;22548;-83
2022/04/07 09:04:59;;;;;;;7.20;3.70;;;;;;;13.09;52.31;98307.09;105809;1281;23267;-82
2022/04/07 09:07:33;;;;;;;4.30;3.60;;;;;;;13.17;52.10;98298.69;105149;1286;22603;-81
2022/04/07 09:10:07;;;;;;;5.80;4.30;;;;;;;13.28;52.29;98292.64;105430;1287;24100;-82
2022/04/07 09:12:43;;;;;;;6.30;4.00;;;;;;;13.44;52.34;98288.07;105971;1282;22820;-82
2022/04/07 09:15:14;;;;;;;8.50;4.30;;;;;;;13.62;51.95;98290.30;106704;1282;23857;-81
2022/04/07 09:17:52;;;;;;;4.90;4.40;;;;;;;13.78;51.60;98283.42;107468;1281;22758;-80
2022/04/07 09:20:23;;;;;;;6.90;4.40;;;;;;;13.85;51.23;98282.65;108265;1281;25267;-82
2022/04/07 09:22:57;;;;;;;7.20;4.60;;;;;;;13.95;51.24;98288.16;106171;1281;22644;-80
2022/04/07 09:25:26;;;;;;;4.70;3.90;;;;;;;13.97;50.87;98284.15;107769;1276;23008;-81
2022/04/07 09:27:57;;;;;;;6.00;4.80;;;;;;;14.01;50.47;98275.97;108092;1276;25377;-82
2022/04/07 09:30:25;;;;;;;8.50;4.60;;;;;;;14.14;50.87;98267.06;108089;1276;22616;-86
2022/04/07 09:32:52;;;;;;;6.60;4.60;;;;;;;14.35;50.82;98269.21;106900;1276;22537;-82
2022/04/07 09:35:19;;;;;;;6.40;5.10;;;;;;;14.59;50.18;98261.29;106591;1276;22532;-83
2022/04/07 09:37:46;;;;;;;6.30;4.10;;;;;;;14.66;50.15;98258.15;106295;1276;25018;-80
2022/04/07 09:40:16;;;;;;;7.60;4.40;;;;;;;14.79;49.96;98254.39;106036;1277;25772;-83
2022/04/07 09:42:43;;;;;;;5.10;3.80;;;;;;;14.82;48.58;98262.55;106401;1277;25363;-82
2022/04/07 09:45:13;;;;;;;5.30;3.40;;;;;;;14.71;47.83;98248.69;107218;1276;25287;-81
2022/04/07 09:47:45;;;;;;;6.10;3.90;;;;;;;14.77;48.04;98240.35;106252;1276;26510;-81
2022/04/07 09:50:23;;;;;;;7.40;3.90;;;;;;;14.93;48.44;98230.58;106193;1275;22534;-83
2022/04/07 09:53:20;;;;;;;4.80;3.20;;;;;;;15.13;47.13;98229.89;105673;1281;22698;-82
2022/04/07 09:55:48;;;;;;;5.00;3.60;;;;;;;15.11;47.41;98228.92;105684;1281;22526;-82
2022/04/07 09:58:17;;;;;;;4.30;3.60;;;;;;;15.09;46.55;98216.63;105455;1282;23967;-82
2022/04/07 10:00:45;;;;;;;5.20;3.80;;;;;;;15.07;46.94;98222.07;105681;1281;24217;-82
2022/04/07 10:03:13;;;;;;;5.40;3.90;;;;;;;15.01;47.13;98222.65;105549;1281;22715;-81
2022/04/07 10:05:41;;;;;;;4.50;3.50;;;;;;;15.07;47.30;98220.65;105470;1281;24103;-84
2022/04/07 10:08:09;;;;;;;6.00;4.00;;;;;;;15.12;46.87;98208.67;105401;1281;25382;-82
2022/04/07 10:10:38;;;;;;;6.00;3.40;;;;;;;15.12;46.49;98201.77;105572;1277;24195;-83
2022/04/07 10:13:06;;;;;;;3.70;2.90;;;;;;;15.15;46.27;98197.14;106060;1277;22537;-81
2022/04/07 10:15:35;;;;;;;3.60;2.60;;;;;;;15.16;45.89;98193.19;106037;1278;22659;-81
2022/04/07 10:18:09;;;;;;;4.90;3.10;;;;;;;15.19;46.02;98190.51;106236;1276;22556;-82
2022/04/07 10:20:41;;;;;;;4.30;3.10;;;;;;;15.26;46.60;98182.77;106087;1277;26601;-82
2022/04/07 10:24:06;;;;;;;3.80;3.00;;;;;;;15.36;46.76;98183.89;106455;1277;22877;-81
2022/04/07 10:26:34;;;;;;;8.80;3.20;;;;;;;15.41;45.33;98172.42;105634;1282;25521;-83
2022/04/07 10:29:03;;;;;;;5.20;2.90;;;;;;;15.27;45.09;98166.91;105462;1283;22556;-83
2022/04/07 10:31:32;;;;;;;4.80;3.40;;;;;;;15.29;45.05;98165.23;106258;1282;23848;-82
2022/04/07 10:34:06;;;;;;;4.80;2.90;;;;;;;15.28;45.17;98163.10;105796;1283;22720;-81
2022/04/07 10:36:39;;;;;;;4.10;3.10;;;;;;;15.39;45.71;98160.28;105206;1287;22569;-83
2022/04/07 10:39:13;;;;;;;4.80;3.40;;;;;;;15.58;45.33;98159.61;104587;1291;22694;-83
2022/04/07 10:41:47;;;;;;;4.60;3.70;;;;;;;15.74;45.37;98153.13;104516;1294;24106;-85
2022/04/07 10:44:16;;;;;;;5.10;3.50;;;;;;;15.90;45.02;98155.92;104517;1290;24221;-82
2022/04/07 10:46:43;;;;;;;4.60;2.90;;;;;;;15.97;44.93;98148.94;104536;1290;25479;-83
2022/04/07 10:49:19;;;;;;;4.70;3.50;;;;;;;16.04;45.03;98152.02;104568;1291;25503;-83
2022/04/07 10:51:56;;;;;;;5.60;3.30;;;;;;;16.02;44.71;98157.32;105191;1291;22509;-80
2022/04/07 10:54:26;;;;;;;3.20;2.60;;;;;;;15.92;44.84;98152.82;105757;1288;22504;-81
2022/04/07 10:56:55;;;;;;;4.40;3.50;;;;;;;15.79;44.90;98146.58;106368;1276;22618;-80
2022/04/07 10:59:25;;;;;;;5.00;3.30;;;;;;;15.66;45.38;98148.14;108011;1276;22533;-81
2022/04/07 11:02:07;;;;;;;4.80;3.50;;;;;;;15.55;45.73;98145.77;108152;1276;22721;-82
2022/04/07 11:04:36;;;;;;;4.70;3.60;;;;;;;15.58;46.08;98138.71;108929;1276;22581;-82
2022/04/07 11:07:05;;;;;;;3.50;2.30;;;;;;;15.88;46.03;98137.49;108390;1276;22558;-81
2022/04/07 11:09:52;;;;;;;5.30;3.00;;;;;;;16.04;45.27;98140.87;108565;1276;23002;-83
2022/04/07 11:12:32;;;;;;;4.80;3.00;;;;;;;16.26;45.35;98135.45;108801;1276;22772;-81
2022/04/07 11:15:02;;;;;;;4.50;3.10;;;;;;;16.42;44.29;98129.00;108666;1276;24445;-81
2022/04/07 11:17:37;;;;;;;5.30;3.10;;;;;;;16.27;44.91;98124.17;108992;1276;23162;-82
2022/04/07 11:20:21;;;;;;;3.30;2.50;;;;;;;16.24;44.96;98117.10;108660;1276;22574;-83
2022/04/07 11:23:04;;;;;;;3.70;2.70;;;;;;;16.40;44.49;98111.60;107602;1276;24262;-83
2022/04/07 11:25:40;;;;;;;3.60;2.40;;;;;;;16.61;44.38;98107.24;107440;1276;22558;-83
2022/04/07 11:28:14;;;;;;;3.80;2.80;;;;;;;17.00;44.13;98106.35;106559;1281;22956;-81
2022/04/07 11:30:46;;;;;;;3.60;2.90;;;;;;;17.16;43.55;98105.00;105848;1281;25424;-79
2022/04/07 11:33:27;;;;;;;3.10;2.80;;;;;;;16.92;43.11;98097.26;105899;1281;24220;-81